Pct Moose — CGCZ — position and weather

sailwx.info

Track history (hours):
 
Tides and Currents Weather Stations Pressure Air Temp Water Temp Dewpoint Dewpoint Depression Visibility Wind Speed Wind Dir Waves Ship Positions

Pct Moose

Last reported at 2015-Mar-02 04:33 UTC. Time now 2015-Mar-02 05:02 UTC.
Position N 48°40' W 123°15'.

; draft 3 m.

Type: Military. MMSI: 316013412.

Date/timePositionNaut miles runAvg speedWind from/ knotsBaromVisibWave heightAir tempDewpointWater temp
2015-Mar-02 04:33N 48°40' W 123°15'9 9.1
2015-Mar-02 03:33N 48°32' W 123°11'9 8.1
2015-Mar-02 02:29N 48°23' W 123°14'6 6.4
2015-Mar-02 01:33N 48°23' W 123°23'3 3.2
2015-Mar-02 00:33N 48°25' W 123°26'8 7.5
2015-Mar-01 23:33N 48°18' W 123°20'3 2.6
2015-Mar-01 22:34N 48°21' W 123°20'1 0.7
2015-Mar-01 21:33N 48°20' W 123°19'3 3.0
2015-Mar-01 20:33N 48°19' W 123°15'7 7.1
2015-Mar-01 19:33N 48°23' W 123°24'4 0.3
2015-Mar-01 05:33N 48°26' W 123°26'0 0.0
2015-Mar-01 04:09N 48°26' W 123°26'0 0.0
2015-Mar-01 03:27N 48°26' W 123°26'0 0.0
2015-Mar-01 02:27N 48°26' W 123°26'0 0.0
2015-Mar-01 01:21N 48°26' W 123°26'0 0.0
2015-Feb-28 21:32N 48°26' W 123°26'0 0.0
2015-Feb-28 13:04N 48°26' W 123°26'0 0.0
2015-Feb-28 12:16N 48°26' W 123°26'0 0.0
2015-Feb-28 11:16N 48°26' W 123°26'0 0.0
2015-Feb-28 10:25N 48°26' W 123°26'0 0.0
2015-Feb-28 09:17N 48°26' W 123°26'0 0.0
2015-Feb-28 08:11N 48°26' W 123°26'0 0.0
2015-Feb-28 06:09N 48°26' W 123°26'0 0.0
2015-Feb-28 04:26N 48°26' W 123°26'0 0.0
2015-Feb-28 02:26N 48°26' W 123°26'0 0.0
2015-Feb-28 01:22N 48°26' W 123°26'0 0.0
2015-Feb-27 21:19N 48°26' W 123°26'0 0.0
2015-Feb-27 19:30N 48°26' W 123°26'4 4.8
2015-Feb-27 18:33N 48°22' W 123°24'7 7.0
2015-Feb-27 17:33N 48°20' W 123°13'2 2.0
2015-Feb-27 16:33N 48°20' W 123°16'1 1.3
2015-Feb-27 15:33N 48°21' W 123°15'1110.8
2015-Feb-27 14:33N 48°31' W 123°12'1111.0
2015-Feb-27 13:33N 48°42' W 123°18'5 4.6
2015-Feb-27 12:33N 48°44' W 123°24'8 8.3
2015-Feb-27 11:33N 48°52' W 123°26'1010.2
2015-Feb-27 10:33N 48°60' W 123°36'2 1.7
2015-Feb-27 09:31N 48°58' W 123°35'1010.6
2015-Feb-27 08:31N 48°51' W 123°23'1010.6
2015-Feb-27 07:33N 48°43' W 123°13'1010.1
2015-Feb-27 06:33N 48°49' W 123°01'1212.1
2015-Feb-27 05:33N 48°58' W 123°14'1110.6
2015-Feb-27 04:33N 49°06' W 123°24'7 6.7
2015-Feb-27 03:33N 49°13' W 123°22'1010.0
2015-Feb-27 02:33N 49°19' W 123°10'3 2.6
2015-Feb-27 01:33N 49°18' W 123°07'0 0.0
2015-Feb-27 00:33N 49°18' W 123°07'2 1.6
2015-Feb-26 23:33N 49°19' W 123°09'6 6.2
2015-Feb-26 22:33N 49°21' W 123°18'6 5.1
2015-Feb-26 21:29N 49°24' W 123°25'9 9.5
2015-Feb-26 20:33N 49°17' W 123°32'3 2.7
2015-Feb-26 19:33N 49°18' W 123°35'6 5.7
2015-Feb-26 18:33N 49°23' W 123°29'5 5.5
2015-Feb-26 17:33N 49°27' W 123°24'0 0.2
2015-Feb-26 16:31N 49°27' W 123°24'9 8.9
2015-Feb-26 15:28N 49°20' W 123°34'8 8.5
2015-Feb-26 14:33N 49°12' W 123°33'1111.5
2015-Feb-26 13:33N 49°04' W 123°21'1212.2
2015-Feb-26 12:33N 48°56' W 123°07'10 9.7
2015-Feb-26 11:32N 48°47' W 123°00'9 9.7
2015-Feb-26 10:33N 48°43' W 123°13'8 8.1
2015-Feb-26 09:33N 48°49' W 123°21'1 0.6
2015-Feb-26 08:23N 48°50' W 123°21'7 7.9
2015-Feb-26 07:33N 48°44' W 123°24'5 5.2
2015-Feb-26 06:33N 48°42' W 123°31'7 6.9
2015-Feb-26 05:33N 48°38' W 123°21'1010.5
2015-Feb-26 04:33N 48°30' W 123°11'10 9.6
2015-Feb-26 03:33N 48°22' W 123°18'9 8.9
2015-Feb-26 02:32N 48°16' W 123°29'8 8.6
2015-Feb-26 01:33N 48°25' W 123°26'1 0.6
2015-Feb-26 00:34N 48°24' W 123°27'0 0.2
2015-Feb-25 23:34N 48°24' W 123°27'2 2.3
2015-Feb-25 22:34N 48°22' W 123°25'5 4.8
2015-Feb-25 21:33N 48°21' W 123°18'0 0.4
2015-Feb-25 20:33N 48°21' W 123°18'7 7.3
2015-Feb-25 19:33N 48°25' W 123°27'6 6.2
2015-Feb-25 18:34N 48°23' W 123°18'9 9.4
2015-Feb-25 17:33N 48°31' W 123°12'7 7.3
2015-Feb-25 16:33N 48°39' W 123°15'9 8.8
2015-Feb-25 15:33N 48°45' W 123°06'7 7.2
2015-Feb-25 14:33N 48°52' W 123°05'1110.9
2015-Feb-25 13:33N 48°60' W 123°18'1111.0
2015-Feb-25 12:33N 49°09' W 123°26'1211.7
2015-Feb-25 11:33N 49°20' W 123°30'9 9.4
2015-Feb-25 10:33N 49°26' W 123°19'9 9.5
2015-Feb-25 09:33N 49°17' W 123°22'10 9.7
2015-Feb-25 08:33N 49°07' W 123°27'1111.2
2015-Feb-25 07:34N 48°60' W 123°14'10 9.8
2015-Feb-25 06:33N 48°53' W 123°03'8 8.1
2015-Feb-25 05:33N 48°45' W 123°03'8 7.6
2015-Feb-25 04:33N 48°42' W 123°14'6 6.1
2015-Feb-25 03:34N 48°45' W 123°22'8 8.4
2015-Feb-25 02:33N 48°38' W 123°14'1010.5
2015-Feb-25 01:33N 48°28' W 123°10'9 9.0
2015-Feb-25 00:33N 48°22' W 123°20'6 5.8
2015-Feb-24 23:33N 48°22' W 123°29'1 1.4
2015-Feb-24 22:34N 48°21' W 123°27'1010.0
2015-Feb-24 21:33N 48°25' W 123°13'1211.6
2015-Feb-24 20:33N 48°36' W 123°14'8 8.0
2015-Feb-24 19:33N 48°44' W 123°10'7 7.4
2015-Feb-24 18:33N 48°48' W 123°00'1918.7
2015-Feb-24 17:34N 48°59' W 123°23'6 5.9
2015-Feb-24 16:34N 49°03' W 123°29'4 4.4
2015-Feb-24 15:34N 49°01' W 123°23'1414.2
2015-Feb-24 14:33N 48°51' W 123°07'8 8.4
2015-Feb-24 13:34N 48°55' W 123°18'1212.5
2015-Feb-24 12:33N 49°04' W 123°32'9 9.0
2015-Feb-24 11:33N 48°59' W 123°20'7 6.5
2015-Feb-24 10:33N 48°55' W 123°13'5 5.1
2015-Feb-24 09:33N 48°51' W 123°09'1212.3
2015-Feb-24 08:33N 48°58' W 123°24'6 6.5
2015-Feb-24 07:33N 49°04' W 123°28'1312.5
2015-Feb-24 06:33N 48°55' W 123°14'1111.1
2015-Feb-24 05:33N 48°49' W 122°60'1010.5
2015-Feb-24 04:34N 48°43' W 123°12'1110.1
2015-Feb-24 03:28N 48°51' W 123°23'1 1.6
2015-Feb-24 02:33N 48°52' W 123°25'7 7.4
2015-Feb-24 01:33N 48°45' W 123°23'4 4.3
2015-Feb-24 00:33N 48°43' W 123°29'10 9.2
2015-Feb-23 23:30N 48°43' W 123°14'6 5.9
2015-Feb-23 22:33N 48°48' W 123°15'4 3.4
2015-Feb-23 21:26N 48°48' W 123°21'8 9.3
2015-Feb-23 20:34N 48°39' W 123°21'8 7.7
2015-Feb-23 19:34N 48°32' W 123°17'9 8.9
2015-Feb-23 18:34N 48°24' W 123°14'8 7.7
2015-Feb-23 17:29N 48°26' W 123°26'0 0.0
2015-Feb-23 16:29N 48°26' W 123°26'0 0.0
2015-Feb-23 15:31N 48°26' W 123°26'0 0.0
2015-Feb-23 14:31N 48°26' W 123°26'0 0.0
2015-Feb-23 13:33N 48°26' W 123°26'0 0.0
2015-Feb-23 12:27N 48°26' W 123°26'0 0.0
2015-Feb-23 09:17N 48°26' W 123°26'0 0.0
2015-Feb-23 07:18N 48°26' W 123°26'0 0.0
2015-Feb-23 06:33N 48°26' W 123°26'0 0.0
2015-Feb-23 05:24N 48°26' W 123°26'0 0.0
2015-Feb-23 04:29N 48°26' W 123°26'0 0.0
2015-Feb-23 03:29N 48°26' W 123°26'0 0.0
2015-Feb-23 02:28N 48°26' W 123°26'0 0.0
2015-Feb-23 01:28N 48°26' W 123°26'0 0.0
2015-Feb-23 00:28N 48°26' W 123°26'0 0.0
2015-Feb-22 23:28N 48°26' W 123°26'0 0.0
2015-Feb-22 22:33N 48°26' W 123°26'0 0.0
2015-Feb-22 21:24N 48°26' W 123°26'0 0.0
2015-Feb-22 20:30N 48°26' W 123°26'0 0.0
2015-Feb-22 19:29N 48°26' W 123°26'0 0.0
2015-Feb-22 18:32N 48°26' W 123°26'0 0.0
2015-Feb-22 17:31N 48°26' W 123°26'0 0.0
2015-Feb-22 16:31N 48°26' W 123°26'0 0.0
2015-Feb-22 15:28N 48°26' W 123°26'0 0.0
2015-Feb-22 14:28N 48°26' W 123°26'0 0.0
2015-Feb-22 13:31N 48°26' W 123°26'0 0.0
2015-Feb-22 12:33N 48°26' W 123°26'0 0.0
2015-Feb-22 11:32N 48°26' W 123°26'0 0.0
2015-Feb-22 10:33N 48°26' W 123°26'0 0.0
2015-Feb-22 09:33N 48°26' W 123°26'0 0.0
2015-Feb-22 08:30N 48°26' W 123°26'0 0.0
2015-Feb-22 07:33N 48°26' W 123°26'0 0.0
2015-Feb-22 06:33N 48°26' W 123°26'0 0.0
2015-Feb-22 05:24N 48°26' W 123°26'0 0.0
2015-Feb-22 04:24N 48°26' W 123°26'0 0.0
2015-Feb-21 23:07N 48°26' W 123°26'0 0.0
2015-Feb-21 11:15N 48°26' W 123°26'0 0.0
2015-Feb-21 07:24N 48°26' W 123°26'0 0.0
2015-Feb-21 06:07N 48°26' W 123°26'0 0.0
2015-Feb-21 03:20N 48°26' W 123°26'0 0.0
2015-Feb-20 18:18N 48°26' W 123°26'1110.7
2015-Feb-20 17:14N 48°15' W 123°22'7 7.3
2015-Feb-20 16:17N 48°20' W 123°14'7 8.7
2015-Feb-20 15:30N 48°26' W 123°12'1010.1
2015-Feb-20 14:31N 48°36' W 123°14'8 7.5
2015-Feb-20 13:31N 48°43' W 123°11'8 8.6
2015-Feb-20 12:33N 48°48' W 123°01'10 9.9
2015-Feb-20 11:33N 48°55' W 123°11'10 9.6
2015-Feb-20 10:34N 49°02' W 123°21'9 8.9
2015-Feb-20 09:33N 49°07' W 123°32'9 9.5
2015-Feb-20 08:34N 49°13' W 123°44'1010.1
2015-Feb-20 07:33N 49°19' W 123°56'9 8.1
2015-Feb-20 06:29N 49°23' W 123°43'1010.5
2015-Feb-20 05:33N 49°20' W 123°29'1414.2
2015-Feb-20 04:34N 49°19' W 123°08'  
Track history (hours):
 
Tides and Currents Weather Stations Pressure Air Temp Water Temp Dewpoint Dewpoint Depression Visibility Wind Speed Wind Dir Waves Ship Positions

Pct Moose

Last reported at 2015-Mar-02 04:33 UTC. Time now 2015-Mar-02 05:02 UTC.
Position N 48°40' W 123°15'.

; draft 3 m.

Type: Military. MMSI: 316013412.

Date/timePositionNaut miles runAvg speedWind from/ knotsBaromVisibWave heightAir tempDewpointWater temp
2015-Mar-02 04:33N 48°40' W 123°15'9 9.1
2015-Mar-02 03:33N 48°32' W 123°11'9 8.1
2015-Mar-02 02:29N 48°23' W 123°14'6 6.4
2015-Mar-02 01:33N 48°23' W 123°23'3 3.2
2015-Mar-02 00:33N 48°25' W 123°26'8 7.5
2015-Mar-01 23:33N 48°18' W 123°20'3 2.6
2015-Mar-01 22:34N 48°21' W 123°20'1 0.7
2015-Mar-01 21:33N 48°20' W 123°19'3 3.0
2015-Mar-01 20:33N 48°19' W 123°15'7 7.1
2015-Mar-01 19:33N 48°23' W 123°24'4 0.3
2015-Mar-01 05:33N 48°26' W 123°26'0 0.0
2015-Mar-01 04:09N 48°26' W 123°26'0 0.0
2015-Mar-01 03:27N 48°26' W 123°26'0 0.0
2015-Mar-01 02:27N 48°26' W 123°26'0 0.0
2015-Mar-01 01:21N 48°26' W 123°26'0 0.0
2015-Feb-28 21:32N 48°26' W 123°26'0 0.0
2015-Feb-28 13:04N 48°26' W 123°26'0 0.0
2015-Feb-28 12:16N 48°26' W 123°26'0 0.0
2015-Feb-28 11:16N 48°26' W 123°26'0 0.0
2015-Feb-28 10:25N 48°26' W 123°26'0 0.0
2015-Feb-28 09:17N 48°26' W 123°26'0 0.0
2015-Feb-28 08:11N 48°26' W 123°26'0 0.0
2015-Feb-28 06:09N 48°26' W 123°26'0 0.0
2015-Feb-28 04:26N 48°26' W 123°26'0 0.0
2015-Feb-28 02:26N 48°26' W 123°26'0 0.0
2015-Feb-28 01:22N 48°26' W 123°26'0 0.0
2015-Feb-27 21:19N 48°26' W 123°26'0 0.0
2015-Feb-27 19:30N 48°26' W 123°26'4 4.8
2015-Feb-27 18:33N 48°22' W 123°24'7 7.0
2015-Feb-27 17:33N 48°20' W 123°13'2 2.0
2015-Feb-27 16:33N 48°20' W 123°16'1 1.3
2015-Feb-27 15:33N 48°21' W 123°15'1110.8
2015-Feb-27 14:33N 48°31' W 123°12'1111.0
2015-Feb-27 13:33N 48°42' W 123°18'5 4.6
2015-Feb-27 12:33N 48°44' W 123°24'8 8.3
2015-Feb-27 11:33N 48°52' W 123°26'1010.2
2015-Feb-27 10:33N 48°60' W 123°36'2 1.7
2015-Feb-27 09:31N 48°58' W 123°35'1010.6
2015-Feb-27 08:31N 48°51' W 123°23'1010.6
2015-Feb-27 07:33N 48°43' W 123°13'1010.1
2015-Feb-27 06:33N 48°49' W 123°01'1212.1
2015-Feb-27 05:33N 48°58' W 123°14'1110.6
2015-Feb-27 04:33N 49°06' W 123°24'7 6.7
2015-Feb-27 03:33N 49°13' W 123°22'1010.0
2015-Feb-27 02:33N 49°19' W 123°10'3 2.6
2015-Feb-27 01:33N 49°18' W 123°07'0 0.0
2015-Feb-27 00:33N 49°18' W 123°07'2 1.6
2015-Feb-26 23:33N 49°19' W 123°09'6 6.2
2015-Feb-26 22:33N 49°21' W 123°18'6 5.1
2015-Feb-26 21:29N 49°24' W 123°25'9 9.5
2015-Feb-26 20:33N 49°17' W 123°32'3 2.7
2015-Feb-26 19:33N 49°18' W 123°35'6 5.7
2015-Feb-26 18:33N 49°23' W 123°29'5 5.5
2015-Feb-26 17:33N 49°27' W 123°24'0 0.2
2015-Feb-26 16:31N 49°27' W 123°24'9 8.9
2015-Feb-26 15:28N 49°20' W 123°34'8 8.5
2015-Feb-26 14:33N 49°12' W 123°33'1111.5
2015-Feb-26 13:33N 49°04' W 123°21'1212.2
2015-Feb-26 12:33N 48°56' W 123°07'10 9.7
2015-Feb-26 11:32N 48°47' W 123°00'9 9.7
2015-Feb-26 10:33N 48°43' W 123°13'8 8.1
2015-Feb-26 09:33N 48°49' W 123°21'1 0.6
2015-Feb-26 08:23N 48°50' W 123°21'7 7.9
2015-Feb-26 07:33N 48°44' W 123°24'5 5.2
2015-Feb-26 06:33N 48°42' W 123°31'7 6.9
2015-Feb-26 05:33N 48°38' W 123°21'1010.5
2015-Feb-26 04:33N 48°30' W 123°11'10 9.6
2015-Feb-26 03:33N 48°22' W 123°18'9 8.9
2015-Feb-26 02:32N 48°16' W 123°29'8 8.6
2015-Feb-26 01:33N 48°25' W 123°26'1 0.6
2015-Feb-26 00:34N 48°24' W 123°27'0 0.2
2015-Feb-25 23:34N 48°24' W 123°27'2 2.3
2015-Feb-25 22:34N 48°22' W 123°25'5 4.8
2015-Feb-25 21:33N 48°21' W 123°18'0 0.4
2015-Feb-25 20:33N 48°21' W 123°18'7 7.3
2015-Feb-25 19:33N 48°25' W 123°27'6 6.2
2015-Feb-25 18:34N 48°23' W 123°18'9 9.4
2015-Feb-25 17:33N 48°31' W 123°12'7 7.3
2015-Feb-25 16:33N 48°39' W 123°15'9 8.8
2015-Feb-25 15:33N 48°45' W 123°06'7 7.2
2015-Feb-25 14:33N 48°52' W 123°05'1110.9
2015-Feb-25 13:33N 48°60' W 123°18'1111.0
2015-Feb-25 12:33N 49°09' W 123°26'1211.7
2015-Feb-25 11:33N 49°20' W 123°30'9 9.4
2015-Feb-25 10:33N 49°26' W 123°19'9 9.5
2015-Feb-25 09:33N 49°17' W 123°22'10 9.7
2015-Feb-25 08:33N 49°07' W 123°27'1111.2
2015-Feb-25 07:34N 48°60' W 123°14'10 9.8
2015-Feb-25 06:33N 48°53' W 123°03'8 8.1
2015-Feb-25 05:33N 48°45' W 123°03'8 7.6
2015-Feb-25 04:33N 48°42' W 123°14'6 6.1
2015-Feb-25 03:34N 48°45' W 123°22'8 8.4
2015-Feb-25 02:33N 48°38' W 123°14'1010.5
2015-Feb-25 01:33N 48°28' W 123°10'9 9.0
2015-Feb-25 00:33N 48°22' W 123°20'6 5.8
2015-Feb-24 23:33N 48°22' W 123°29'1 1.4
2015-Feb-24 22:34N 48°21' W 123°27'1010.0
2015-Feb-24 21:33N 48°25' W 123°13'1211.6
2015-Feb-24 20:33N 48°36' W 123°14'8 8.0
2015-Feb-24 19:33N 48°44' W 123°10'7 7.4
2015-Feb-24 18:33N 48°48' W 123°00'1918.7
2015-Feb-24 17:34N 48°59' W 123°23'6 5.9
2015-Feb-24 16:34N 49°03' W 123°29'4 4.4
2015-Feb-24 15:34N 49°01' W 123°23'1414.2
2015-Feb-24 14:33N 48°51' W 123°07'8 8.4
2015-Feb-24 13:34N 48°55' W 123°18'1212.5
2015-Feb-24 12:33N 49°04' W 123°32'9 9.0
2015-Feb-24 11:33N 48°59' W 123°20'7 6.5
2015-Feb-24 10:33N 48°55' W 123°13'5 5.1
2015-Feb-24 09:33N 48°51' W 123°09'1212.3
2015-Feb-24 08:33N 48°58' W 123°24'6 6.5
2015-Feb-24 07:33N 49°04' W 123°28'1312.5
2015-Feb-24 06:33N 48°55' W 123°14'1111.1
2015-Feb-24 05:33N 48°49' W 122°60'1010.5
2015-Feb-24 04:34N 48°43' W 123°12'1110.1
2015-Feb-24 03:28N 48°51' W 123°23'1 1.6
2015-Feb-24 02:33N 48°52' W 123°25'7 7.4
2015-Feb-24 01:33N 48°45' W 123°23'4 4.3
2015-Feb-24 00:33N 48°43' W 123°29'10 9.2
2015-Feb-23 23:30N 48°43' W 123°14'6 5.9
2015-Feb-23 22:33N 48°48' W 123°15'4 3.4
2015-Feb-23 21:26N 48°48' W 123°21'8 9.3
2015-Feb-23 20:34N 48°39' W 123°21'8 7.7
2015-Feb-23 19:34N 48°32' W 123°17'9 8.9
2015-Feb-23 18:34N 48°24' W 123°14'8 7.7
2015-Feb-23 17:29N 48°26' W 123°26'0 0.0
2015-Feb-23 16:29N 48°26' W 123°26'0 0.0
2015-Feb-23 15:31N 48°26' W 123°26'0 0.0
2015-Feb-23 14:31N 48°26' W 123°26'0 0.0
2015-Feb-23 13:33N 48°26' W 123°26'0 0.0
2015-Feb-23 12:27N 48°26' W 123°26'0 0.0
2015-Feb-23 09:17N 48°26' W 123°26'0 0.0
2015-Feb-23 07:18N 48°26' W 123°26'0 0.0
2015-Feb-23 06:33N 48°26' W 123°26'0 0.0
2015-Feb-23 05:24N 48°26' W 123°26'0 0.0
2015-Feb-23 04:29N 48°26' W 123°26'0 0.0
2015-Feb-23 03:29N 48°26' W 123°26'0 0.0
2015-Feb-23 02:28N 48°26' W 123°26'0 0.0
2015-Feb-23 01:28N 48°26' W 123°26'0 0.0
2015-Feb-23 00:28N 48°26' W 123°26'0 0.0
2015-Feb-22 23:28N 48°26' W 123°26'0 0.0
2015-Feb-22 22:33N 48°26' W 123°26'0 0.0
2015-Feb-22 21:24N 48°26' W 123°26'0 0.0
2015-Feb-22 20:30N 48°26' W 123°26'0 0.0
2015-Feb-22 19:29N 48°26' W 123°26'0 0.0
2015-Feb-22 18:32N 48°26' W 123°26'0 0.0
2015-Feb-22 17:31N 48°26' W 123°26'0 0.0
2015-Feb-22 16:31N 48°26' W 123°26'0 0.0
2015-Feb-22 15:28N 48°26' W 123°26'0 0.0
2015-Feb-22 14:28N 48°26' W 123°26'0 0.0
2015-Feb-22 13:31N 48°26' W 123°26'0 0.0
2015-Feb-22 12:33N 48°26' W 123°26'0 0.0
2015-Feb-22 11:32N 48°26' W 123°26'0 0.0
2015-Feb-22 10:33N 48°26' W 123°26'0 0.0
2015-Feb-22 09:33N 48°26' W 123°26'0 0.0
2015-Feb-22 08:30N 48°26' W 123°26'0 0.0
2015-Feb-22 07:33N 48°26' W 123°26'0 0.0
2015-Feb-22 06:33N 48°26' W 123°26'0 0.0
2015-Feb-22 05:24N 48°26' W 123°26'0 0.0
2015-Feb-22 04:24N 48°26' W 123°26'0 0.0
2015-Feb-21 23:07N 48°26' W 123°26'0 0.0
2015-Feb-21 11:15N 48°26' W 123°26'0 0.0
2015-Feb-21 07:24N 48°26' W 123°26'0 0.0
2015-Feb-21 06:07N 48°26' W 123°26'0 0.0
2015-Feb-21 03:20N 48°26' W 123°26'0 0.0
2015-Feb-20 18:18N 48°26' W 123°26'1110.7
2015-Feb-20 17:14N 48°15' W 123°22'7 7.3
2015-Feb-20 16:17N 48°20' W 123°14'7 8.7
2015-Feb-20 15:30N 48°26' W 123°12'1010.1
2015-Feb-20 14:31N 48°36' W 123°14'8 7.5
2015-Feb-20 13:31N 48°43' W 123°11'8 8.6
2015-Feb-20 12:33N 48°48' W 123°01'10 9.9
2015-Feb-20 11:33N 48°55' W 123°11'10 9.6
2015-Feb-20 10:34N 49°02' W 123°21'9 8.9
2015-Feb-20 09:33N 49°07' W 123°32'9 9.5
2015-Feb-20 08:34N 49°13' W 123°44'1010.1
2015-Feb-20 07:33N 49°19' W 123°56'9 8.1
2015-Feb-20 06:29N 49°23' W 123°43'1010.5
2015-Feb-20 05:33N 49°20' W 123°29'1414.2
2015-Feb-20 04:34N 49°19' W 123°08'  

Dump ship's entire track history